createdAt,value
2023-02-08T00:00:16.978Z,16.28
2023-02-08T00:01:39.056Z,15.36
2023-02-08T00:02:41.253Z,15.82
2023-02-08T00:03:44.027Z,15.08
2023-02-08T00:04:46.148Z,15.13
2023-02-08T00:05:48.550Z,14.60
2023-02-08T00:06:50.879Z,14.80
2023-02-08T00:07:54.113Z,15.13
2023-02-08T00:08:56.173Z,16.23
2023-02-08T00:09:58.103Z,15.77
2023-02-08T00:11:01.588Z,15.12
2023-02-08T00:12:03.822Z,15.70
2023-02-08T00:13:05.741Z,15.88
2023-02-08T00:14:08.981Z,15.77
2023-02-08T00:15:10.819Z,16.27
2023-02-08T00:16:15.498Z,16.02
2023-02-08T00:17:17.492Z,16.75
2023-02-08T00:18:19.965Z,16.37
2023-02-08T00:19:22.590Z,17.02
2023-02-08T00:20:24.418Z,16.13
2023-02-08T00:21:26.404Z,16.73
2023-02-08T00:22:28.320Z,17.67
2023-02-08T00:23:30.105Z,16.80
2023-02-08T00:24:32.780Z,15.72
2023-02-08T00:25:35.339Z,16.17
2023-02-08T00:26:38.529Z,16.69
2023-02-08T00:27:40.848Z,16.74
2023-02-08T00:28:43.712Z,16.65
2023-02-08T00:29:45.570Z,16.24
2023-02-08T00:30:47.405Z,17.05
2023-02-08T00:31:50.071Z,17.20
2023-02-08T00:32:52.440Z,17.62
2023-02-08T00:33:54.337Z,17.86
2023-02-08T00:34:56.179Z,18.04
2023-02-08T00:36:02.370Z,17.82
2023-02-08T00:37:05.473Z,17.05
2023-02-08T00:38:07.456Z,17.49
2023-02-08T00:39:09.206Z,16.95
2023-02-08T00:40:11.757Z,16.74
2023-02-08T00:41:13.979Z,17.73
2023-02-08T00:42:15.932Z,18.33
2023-02-08T00:43:18.365Z,19.04
2023-02-08T00:44:20.547Z,19.53
2023-02-08T00:45:23.738Z,19.75
2023-02-08T00:46:25.793Z,19.62
2023-02-08T00:47:27.751Z,20.19
2023-02-08T00:48:30.229Z,21.98
2023-02-08T00:49:32.477Z,22.13
2023-02-08T00:50:34.426Z,23.11
2023-02-08T00:51:37.896Z,22.12
2023-02-08T00:52:39.906Z,21.27
2023-02-08T00:53:45.364Z,22.43
2023-02-08T00:54:47.887Z,21.53
2023-02-08T00:55:54.291Z,21.09
2023-02-08T00:56:56.143Z,21.86
2023-02-08T00:57:57.923Z,21.54
2023-02-08T00:58:59.887Z,21.41
2023-02-08T01:00:02.216Z,21.87
2023-02-08T01:01:05.467Z,20.73
2023-02-08T01:02:07.809Z,20.67
2023-02-08T01:03:09.676Z,20.03
2023-02-08T01:04:11.545Z,19.75
2023-02-08T01:05:13.865Z,20.31
2023-02-08T01:06:17.917Z,19.83
2023-02-08T01:07:20.434Z,19.10
2023-02-08T01:08:22.373Z,19.71
2023-02-08T01:09:24.548Z,18.98
2023-02-08T01:10:26.337Z,19.14
2023-02-08T01:11:28.212Z,18.39
2023-02-08T01:12:30.139Z,18.63
2023-02-08T01:13:32.035Z,17.97
2023-02-08T01:14:34.573Z,19.05
2023-02-08T01:15:36.474Z,19.64
2023-02-08T01:16:39.024Z,18.97
2023-02-08T01:17:41.001Z,18.92
2023-02-08T01:18:47.772Z,18.97
2023-02-08T01:19:49.646Z,19.45
2023-02-08T01:20:52.288Z,19.70
2023-02-08T01:21:54.059Z,18.68
2023-02-08T01:22:56.290Z,19.10
2023-02-08T01:23:59.153Z,19.12
2023-02-08T01:25:01.288Z,19.60
2023-02-08T01:26:05.136Z,19.32
2023-02-08T01:27:06.973Z,19.71
2023-02-08T01:28:08.966Z,19.44
2023-02-08T01:29:10.890Z,18.98
2023-02-08T01:30:14.266Z,18.93
2023-02-08T01:31:22.874Z,18.14
2023-02-08T01:32:24.829Z,17.72
2023-02-08T01:33:26.744Z,17.99
2023-02-08T01:34:28.536Z,18.34
2023-02-08T01:35:30.575Z,19.37
2023-02-08T01:36:33.391Z,18.82
2023-02-08T01:37:35.468Z,18.95
2023-02-08T01:38:39.277Z,18.51
2023-02-08T01:39:41.274Z,19.18
2023-02-08T01:40:43.238Z,19.55
2023-02-08T01:41:46.784Z,19.93
2023-02-08T01:42:50.023Z,19.82
2023-02-08T01:44:29.465Z,19.42
2023-02-08T01:45:32.052Z,20.13
2023-02-08T01:46:37.252Z,18.92
2023-02-08T01:47:39.671Z,19.24
2023-02-08T01:48:41.940Z,19.21
2023-02-08T01:49:44.066Z,20.83
2023-02-08T01:51:05.497Z,20.34
2023-02-08T01:52:16.675Z,20.11
2023-02-08T01:53:19.675Z,20.36
2023-02-08T01:54:26.067Z,20.73
2023-02-08T01:55:37.228Z,20.75
2023-02-08T01:56:45.951Z,20.76
2023-02-08T01:57:53.787Z,20.28
2023-02-08T01:59:01.756Z,20.06
2023-02-08T02:00:23.136Z,20.83
2023-02-08T02:01:29.152Z,20.22
2023-02-08T02:02:32.191Z,21.15
2023-02-08T02:03:34.396Z,20.96
2023-02-08T02:04:36.322Z,21.88
2023-02-08T02:05:50.656Z,21.38
2023-02-08T02:06:57.116Z,22.61
2023-02-08T02:08:00.305Z,22.25
2023-02-08T02:09:31.869Z,22.17
2023-02-08T02:10:38.435Z,22.71
2023-02-08T02:11:41.272Z,21.09
2023-02-08T02:12:45.241Z,21.26
2023-02-08T02:13:51.172Z,21.97
2023-02-08T02:14:54.254Z,22.85
2023-02-08T02:15:56.069Z,23.80
2023-02-08T02:17:00.096Z,23.30
2023-02-08T02:18:05.770Z,24.53
2023-02-08T02:19:22.791Z,24.63
2023-02-08T02:20:24.664Z,23.84
2023-02-08T02:21:38.901Z,23.41
2023-02-08T02:26:37.550Z,26.31
2023-02-08T02:28:21.781Z,26.01
2023-02-08T02:29:48.079Z,24.50
2023-02-08T02:31:20.792Z,24.54
2023-02-08T02:32:25.910Z,24.34
2023-02-08T02:34:02.101Z,24.58
2023-02-08T02:35:06.686Z,24.26
2023-02-08T02:36:28.518Z,24.27
2023-02-08T02:38:00.798Z,24.53
2023-02-08T02:39:10.648Z,23.98
2023-02-08T02:40:22.390Z,23.04
2023-02-08T02:42:12.071Z,23.15
2023-02-08T02:43:52.298Z,23.08
2023-02-08T02:45:20.520Z,22.14
2023-02-08T02:46:26.652Z,22.16
2023-02-08T02:47:39.924Z,23.20
2023-02-08T02:49:36.881Z,22.57
2023-02-08T02:51:06.236Z,22.20
2023-02-08T02:52:40.474Z,22.66
2023-02-08T02:53:55.939Z,22.07
2023-02-08T02:55:07.735Z,20.81
2023-02-08T02:56:15.838Z,21.29
2023-02-08T02:57:26.979Z,20.94
2023-02-08T02:58:30.752Z,20.86
2023-02-08T02:59:35.353Z,19.80
2023-02-08T03:00:38.195Z,20.40
2023-02-08T03:01:42.526Z,19.78
2023-02-08T03:02:45.302Z,19.82
2023-02-08T03:03:48.426Z,20.83
2023-02-08T03:04:55.656Z,20.48
2023-02-08T03:06:04.653Z,21.22
2023-02-08T03:07:37.403Z,23.00
2023-02-08T03:09:00.647Z,23.17
2023-02-08T03:10:18.074Z,21.70
2023-02-08T03:11:28.404Z,20.81
2023-02-08T03:12:51.401Z,21.98
2023-02-08T03:14:26.888Z,20.61
2023-02-08T03:16:00.194Z,25.89
2023-02-08T03:17:49.381Z,31.31
2023-02-08T03:19:10.017Z,26.69
2023-02-08T03:20:15.140Z,22.54
2023-02-08T03:21:40.026Z,23.13
2023-02-08T03:23:17.870Z,25.29
2023-02-08T03:24:34.291Z,28.21
2023-02-08T03:25:56.655Z,34.77
2023-02-08T03:27:05.448Z,29.57
2023-02-08T03:28:20.707Z,25.03
2023-02-08T03:29:35.557Z,24.91
2023-02-08T03:30:56.937Z,24.13
2023-02-08T03:32:18.203Z,22.39
2023-02-08T03:33:57.012Z,24.04
2023-02-08T03:35:18.093Z,20.46
2023-02-08T03:36:24.112Z,20.70
2023-02-08T03:37:42.648Z,20.53
2023-02-08T03:38:50.851Z,22.06
2023-02-08T03:40:02.265Z,20.61
2023-02-08T03:41:10.371Z,21.07
2023-02-08T03:42:26.284Z,21.61
2023-02-08T03:43:35.879Z,21.13
2023-02-08T03:44:45.676Z,19.68
2023-02-08T03:46:12.193Z,19.47
2023-02-08T03:47:24.042Z,19.13
2023-02-08T03:48:30.394Z,18.28
2023-02-08T03:49:37.135Z,19.07
2023-02-08T03:50:44.009Z,19.20
2023-02-08T03:51:47.079Z,18.12
2023-02-08T03:52:52.557Z,18.95
2023-02-08T03:53:58.814Z,19.23
2023-02-08T03:55:07.480Z,18.28
2023-02-08T03:56:27.101Z,18.64
2023-02-08T03:57:46.486Z,18.75
2023-02-08T03:59:07.210Z,18.40
2023-02-08T04:00:14.834Z,19.34
2023-02-08T04:01:26.327Z,18.54
2023-02-08T04:02:33.961Z,19.04
2023-02-08T04:03:37.552Z,20.00
2023-02-08T04:04:46.595Z,20.33
2023-02-08T04:05:49.948Z,19.69
2023-02-08T04:06:52.598Z,19.08
2023-02-08T04:07:54.663Z,18.94
2023-02-08T04:08:56.495Z,17.95
2023-02-08T04:09:58.352Z,17.24
2023-02-08T04:11:00.281Z,17.79
2023-02-08T04:12:02.214Z,16.80
2023-02-08T04:13:04.749Z,16.68
2023-02-08T04:14:06.770Z,16.70
2023-02-08T04:15:09.488Z,17.67
2023-02-08T04:16:12.662Z,17.38
2023-02-08T04:17:14.993Z,17.03
2023-02-08T04:18:16.868Z,16.87
2023-02-08T04:19:18.938Z,17.26
2023-02-08T04:20:20.838Z,18.30
2023-02-08T04:21:22.756Z,17.28
2023-02-08T04:22:24.805Z,16.98
2023-02-08T04:23:26.864Z,17.41
2023-02-08T04:24:28.827Z,16.03
2023-02-08T04:25:30.717Z,16.73
2023-02-08T04:26:32.658Z,16.73
2023-02-08T04:27:34.512Z,15.72
2023-02-08T04:28:36.419Z,15.97
2023-02-08T04:29:38.333Z,15.60
2023-02-08T04:30:40.499Z,15.70
2023-02-08T04:31:42.637Z,16.25
2023-02-08T04:32:44.589Z,16.28
2023-02-08T04:33:46.726Z,16.45
2023-02-08T04:34:48.583Z,16.27
2023-02-08T04:35:50.552Z,16.43
2023-02-08T04:36:52.745Z,15.81
2023-02-08T04:37:55.289Z,17.30
2023-02-08T04:38:57.842Z,17.12
2023-02-08T04:39:59.984Z,17.61
2023-02-08T04:41:02.147Z,18.60
2023-02-08T04:42:04.959Z,17.74
2023-02-08T04:43:06.933Z,17.59
2023-02-08T04:44:08.872Z,17.93
2023-02-08T04:45:10.793Z,18.20
2023-02-08T04:46:12.693Z,18.21
2023-02-08T04:47:14.924Z,18.38
2023-02-08T04:48:18.282Z,18.31
2023-02-08T04:49:20.073Z,18.00
2023-02-08T04:50:22.085Z,18.44
2023-02-08T04:51:23.964Z,17.69
2023-02-08T04:52:25.787Z,20.34
2023-02-08T04:53:27.740Z,21.30
2023-02-08T04:54:29.776Z,27.66
2023-02-08T04:55:31.776Z,32.96
2023-02-08T04:56:33.928Z,28.49
2023-02-08T04:57:35.937Z,22.51
2023-02-08T04:58:37.799Z,21.38
2023-02-08T04:59:40.347Z,20.53
2023-02-08T05:00:42.522Z,19.12
2023-02-08T05:01:44.830Z,17.54
2023-02-08T05:02:46.832Z,16.98
2023-02-08T05:03:49.201Z,22.67
2023-02-08T05:04:51.186Z,51.22
2023-02-08T05:05:57.824Z,81.13
2023-02-08T05:06:59.722Z,66.12
2023-02-08T05:08:02.434Z,52.48
2023-02-08T05:09:08.317Z,47.64
2023-02-08T05:10:10.258Z,49.11
2023-02-08T05:11:12.868Z,51.52
2023-02-08T05:12:15.009Z,49.75
2023-02-08T05:13:16.813Z,31.61
2023-02-08T05:14:18.816Z,37.87
2023-02-08T05:15:20.664Z,51.07
2023-02-08T05:16:22.759Z,46.64
2023-02-08T05:17:24.666Z,26.11
2023-02-08T05:18:26.544Z,20.84
2023-02-08T05:19:28.746Z,24.84
2023-02-08T05:20:31.037Z,35.35
2023-02-08T05:21:33.077Z,45.76
2023-02-08T05:22:35.000Z,67.09
2023-02-08T05:23:37.808Z,63.92
2023-02-08T05:24:39.794Z,54.10
2023-02-08T05:25:42.185Z,49.22
2023-02-08T05:26:44.099Z,37.86
2023-02-08T05:27:46.282Z,46.88
2023-02-08T05:28:48.156Z,50.42
2023-02-08T05:29:50.326Z,53.98
2023-02-08T05:30:52.400Z,74.24
2023-02-08T05:31:54.302Z,55.83
2023-02-08T05:32:56.369Z,31.02
2023-02-08T05:33:58.438Z,20.51
2023-02-08T05:35:00.327Z,22.29
2023-02-08T05:36:03.224Z,30.40
2023-02-08T05:37:06.793Z,39.59
2023-02-08T05:38:08.637Z,46.72
2023-02-08T05:39:10.505Z,44.10
2023-02-08T05:40:13.265Z,31.69
2023-02-08T05:41:15.866Z,25.43
2023-02-08T05:42:17.692Z,28.00
2023-02-08T05:43:19.557Z,28.85
2023-02-08T05:44:21.840Z,28.91
2023-02-08T05:45:24.520Z,30.24
2023-02-08T05:46:26.325Z,40.71
2023-02-08T05:47:28.143Z,44.33
2023-02-08T05:48:31.721Z,37.47
2023-02-08T05:49:33.442Z,26.96
2023-02-08T05:50:35.427Z,21.03
2023-02-08T05:51:37.244Z,19.47
2023-02-08T05:52:39.286Z,18.28
2023-02-08T05:53:41.259Z,18.03
2023-02-08T05:54:43.163Z,17.22
2023-02-08T05:55:46.537Z,16.51
2023-02-08T05:56:48.573Z,16.44
2023-02-08T05:57:50.680Z,15.32
2023-02-08T05:58:52.451Z,15.47
2023-02-08T05:59:54.276Z,14.77
2023-02-08T06:00:56.395Z,15.30
2023-02-08T06:01:58.288Z,15.51
2023-02-08T06:03:00.180Z,14.92
2023-02-08T06:04:02.409Z,15.44
2023-02-08T06:05:04.479Z,17.49
2023-02-08T06:06:08.135Z,34.81
2023-02-08T06:07:10.160Z,62.85
2023-02-08T06:08:12.167Z,51.67
2023-02-08T06:09:14.217Z,32.30
2023-02-08T06:10:16.921Z,30.07
2023-02-08T06:11:19.610Z,33.46
2023-02-08T06:12:21.485Z,38.01
2023-02-08T06:13:23.250Z,39.02
2023-02-08T06:14:25.165Z,38.54
2023-02-08T06:15:27.570Z,35.01
2023-02-08T06:16:29.754Z,35.79
2023-02-08T06:17:32.020Z,34.92
2023-02-08T06:18:33.834Z,25.22
2023-02-08T06:19:35.691Z,23.10
2023-02-08T06:20:39.045Z,26.56
2023-02-08T06:21:42.354Z,28.59
2023-02-08T06:22:44.387Z,27.57
2023-02-08T06:23:46.329Z,27.38
2023-02-08T06:24:49.131Z,31.74
2023-02-08T06:25:51.476Z,29.31
2023-02-08T06:26:53.385Z,24.10
2023-02-08T06:27:57.334Z,20.68
2023-02-08T06:29:00.420Z,17.13
2023-02-08T06:30:02.551Z,16.34
2023-02-08T06:31:04.408Z,15.08
2023-02-08T06:32:07.025Z,14.89
2023-02-08T06:33:09.456Z,16.15
2023-02-08T06:34:11.503Z,16.10
2023-02-08T06:35:14.409Z,16.73
2023-02-08T06:36:16.571Z,16.03
2023-02-08T06:37:19.477Z,16.08
2023-02-08T06:38:21.862Z,15.12
2023-02-08T06:39:23.974Z,15.90
2023-02-08T06:40:26.337Z,16.11
2023-02-08T06:41:28.132Z,16.07
2023-02-08T06:42:29.887Z,14.57
2023-02-08T06:43:32.037Z,15.42
2023-02-08T06:44:34.119Z,16.08
2023-02-08T06:45:35.973Z,15.78
2023-02-08T06:46:37.732Z,16.49
2023-02-08T06:47:39.614Z,15.72
2023-02-08T06:48:41.635Z,15.25
2023-02-08T06:49:43.480Z,15.02
2023-02-08T06:50:45.395Z,14.49
2023-02-08T06:51:47.375Z,14.46
2023-02-08T06:52:49.516Z,13.71
2023-02-08T06:53:51.895Z,14.68
2023-02-08T06:54:53.697Z,15.53
2023-02-08T06:55:55.579Z,14.56
2023-02-08T06:56:57.428Z,15.25
2023-02-08T06:57:59.522Z,16.54
2023-02-08T06:59:01.538Z,15.98
2023-02-08T07:00:04.646Z,16.99
2023-02-08T07:01:06.734Z,17.45
2023-02-08T07:02:14.015Z,19.43
2023-02-08T07:03:17.706Z,23.49
2023-02-08T07:04:19.993Z,33.87
2023-02-08T07:05:21.949Z,25.50
2023-02-08T07:06:23.842Z,18.12
2023-02-08T07:07:25.892Z,16.60
2023-02-08T07:08:27.798Z,15.19
2023-02-08T07:09:29.818Z,16.61
2023-02-08T07:10:31.980Z,16.63
2023-02-08T07:11:34.309Z,20.07
2023-02-08T07:12:37.515Z,20.61
2023-02-08T07:13:39.945Z,29.74
2023-02-08T07:14:43.650Z,25.40
2023-02-08T07:15:45.683Z,18.31
2023-02-08T07:16:47.740Z,16.40
2023-02-08T07:17:50.862Z,16.10
2023-02-08T07:18:52.793Z,16.41
2023-02-08T07:19:54.549Z,15.86
2023-02-08T07:20:56.465Z,15.15
2023-02-08T07:22:08.425Z,14.00
2023-02-08T07:23:10.598Z,14.54
2023-02-08T07:24:12.513Z,14.55
2023-02-08T07:25:15.210Z,15.17
2023-02-08T07:26:17.497Z,14.91
2023-02-08T07:27:19.622Z,15.54
2023-02-08T07:28:21.822Z,15.80
2023-02-08T07:29:24.186Z,14.49
2023-02-08T07:30:26.124Z,14.81
2023-02-08T07:31:28.102Z,13.89
2023-02-08T07:32:30.136Z,14.64
2023-02-08T07:33:32.425Z,14.80
2023-02-08T07:34:37.294Z,15.35
2023-02-08T07:35:39.623Z,15.96
2023-02-08T07:36:41.717Z,15.75
2023-02-08T07:37:43.726Z,14.76
2023-02-08T07:38:45.636Z,15.98
2023-02-08T07:39:47.720Z,17.07
2023-02-08T07:40:49.770Z,16.31
2023-02-08T07:41:52.324Z,16.12
2023-02-08T07:42:54.414Z,16.60
2023-02-08T07:44:02.489Z,16.42
2023-02-08T07:45:05.396Z,18.61
2023-02-08T07:46:11.827Z,18.32
2023-02-08T07:47:13.879Z,16.34
2023-02-08T07:48:16.090Z,17.20
2023-02-08T07:49:17.933Z,18.25
2023-02-08T07:50:20.624Z,17.94
2023-02-08T07:51:22.789Z,16.88
2023-02-08T07:52:24.696Z,17.03
2023-02-08T07:53:27.004Z,18.05
2023-02-08T07:54:29.807Z,19.02
2023-02-08T07:55:32.182Z,20.03
2023-02-08T07:56:34.254Z,20.66
2023-02-08T07:57:36.279Z,21.47
2023-02-08T07:58:38.415Z,26.92
2023-02-08T07:59:40.447Z,37.61
2023-02-08T08:00:42.487Z,28.97
2023-02-08T08:01:44.690Z,24.67
2023-02-08T08:02:46.698Z,21.20
2023-02-08T08:03:50.373Z,18.39
2023-02-08T08:04:54.235Z,17.94
2023-02-08T08:05:56.195Z,17.46
2023-02-08T08:06:58.025Z,17.10
2023-02-08T08:07:59.894Z,17.15
2023-02-08T08:09:02.212Z,16.67
2023-02-08T08:10:04.935Z,17.17
2023-02-08T08:11:06.989Z,17.39
2023-02-08T08:12:09.187Z,17.03
2023-02-08T08:13:11.128Z,15.39
2023-02-08T08:14:13.143Z,14.46
2023-02-08T08:15:14.946Z,17.46
2023-02-08T08:16:18.918Z,18.80
2023-02-08T08:17:21.450Z,16.47
2023-02-08T08:18:23.378Z,16.31
2023-02-08T08:19:25.358Z,16.49
2023-02-08T08:20:27.503Z,16.53
2023-02-08T08:21:29.415Z,18.05
2023-02-08T08:22:31.316Z,18.24
2023-02-08T08:23:33.401Z,15.27
2023-02-08T08:24:35.788Z,14.88
2023-02-08T08:25:38.449Z,14.41
2023-02-08T08:26:40.409Z,14.41
2023-02-08T08:27:44.179Z,14.91
2023-02-08T08:28:46.939Z,14.87
2023-02-08T08:29:49.209Z,15.20
2023-02-08T08:30:51.496Z,14.82
2023-02-08T08:31:53.710Z,15.16
2023-02-08T08:32:55.797Z,15.78
2023-02-08T08:33:57.724Z,15.54
2023-02-08T08:34:59.794Z,15.45
2023-02-08T08:36:01.745Z,15.55
2023-02-08T08:37:03.619Z,16.27
2023-02-08T08:38:05.394Z,16.36
2023-02-08T08:39:07.373Z,17.03
2023-02-08T08:40:10.239Z,17.15
2023-02-08T08:41:17.103Z,17.49
2023-02-08T08:42:20.535Z,18.29
2023-02-08T08:43:22.492Z,18.47
2023-02-08T08:44:24.752Z,18.41
2023-02-08T08:45:26.720Z,18.32
2023-02-08T08:46:28.749Z,19.21
2023-02-08T08:47:30.708Z,16.02
2023-02-08T08:48:34.249Z,16.23
2023-02-08T08:49:36.337Z,15.95
2023-02-08T08:50:39.362Z,15.70
2023-02-08T08:51:41.616Z,14.47
2023-02-08T08:52:43.497Z,15.76
2023-02-08T08:53:45.291Z,15.06
2023-02-08T08:54:47.526Z,14.46
2023-02-08T08:55:49.330Z,15.16
2023-02-08T08:56:51.208Z,14.90
2023-02-08T08:57:53.874Z,15.57
2023-02-08T08:58:55.830Z,14.93
2023-02-08T08:59:57.899Z,17.15
2023-02-08T09:01:00.631Z,20.18
2023-02-08T09:02:02.674Z,18.54
2023-02-08T09:03:04.668Z,18.02
2023-02-08T09:04:06.828Z,19.19
2023-02-08T09:05:08.717Z,18.29
2023-02-08T09:06:10.992Z,16.47
2023-02-08T09:07:12.936Z,15.95
2023-02-08T09:08:15.135Z,16.63
2023-02-08T09:09:17.778Z,16.17
2023-02-08T09:10:19.753Z,16.51
2023-02-08T09:11:21.832Z,16.65
2023-02-08T09:12:24.043Z,16.93
2023-02-08T09:13:26.110Z,17.45
2023-02-08T09:14:28.031Z,18.07
2023-02-08T09:15:30.048Z,18.44
2023-02-08T09:16:32.683Z,17.84
2023-02-08T09:17:34.689Z,18.12
2023-02-08T09:18:37.027Z,17.87
2023-02-08T09:19:39.101Z,19.93
2023-02-08T09:20:41.786Z,24.82
2023-02-08T09:21:44.220Z,24.34
2023-02-08T09:22:46.198Z,22.14
2023-02-08T09:23:48.493Z,25.41
2023-02-08T09:24:53.879Z,40.86
2023-02-08T09:25:55.857Z,35.17
2023-02-08T09:26:57.817Z,27.63
2023-02-08T09:28:00.308Z,23.77
2023-02-08T09:29:02.490Z,25.27
2023-02-08T09:30:05.192Z,24.41
2023-02-08T09:31:09.456Z,25.67
2023-02-08T09:32:11.559Z,25.90
2023-02-08T09:33:13.543Z,28.19
2023-02-08T09:34:15.989Z,28.37
2023-02-08T09:35:18.033Z,33.00
2023-02-08T09:36:22.226Z,29.97
2023-02-08T09:37:24.483Z,31.55
2023-02-08T09:38:26.941Z,32.82
2023-02-08T09:39:29.033Z,31.49
2023-02-08T09:41:09.849Z,28.20
2023-02-08T09:42:43.547Z,29.51
2023-02-08T09:43:55.065Z,31.50
2023-02-08T09:45:31.093Z,30.28
2023-02-08T09:46:41.220Z,35.35
2023-02-08T09:47:58.926Z,36.32
2023-02-08T09:49:09.073Z,42.72
2023-02-08T09:50:18.845Z,50.55
2023-02-08T09:51:37.595Z,36.13
2023-02-08T09:52:52.229Z,43.89
2023-02-08T09:54:02.183Z,35.14
2023-02-08T09:55:25.984Z,32.74
2023-02-08T09:56:34.462Z,34.83
2023-02-08T09:57:39.062Z,27.56
2023-02-08T09:58:47.058Z,25.92
2023-02-08T09:59:57.248Z,25.43
2023-02-08T10:00:59.787Z,26.92
2023-02-08T10:02:18.277Z,28.19
2023-02-08T10:03:25.859Z,25.33
2023-02-08T10:04:55.861Z,25.45
2023-02-08T10:05:58.522Z,27.23
2023-02-08T10:07:00.916Z,32.46
2023-02-08T10:08:03.210Z,29.18
2023-02-08T10:09:13.941Z,26.74
2023-02-08T10:10:26.185Z,24.88
2023-02-08T10:11:54.236Z,25.94
2023-02-08T10:13:41.600Z,30.28
2023-02-08T10:15:00.126Z,31.57
2023-02-08T10:16:15.693Z,34.02
2023-02-08T10:17:50.889Z,38.34
2023-02-08T10:19:03.192Z,33.78
2023-02-08T10:20:18.286Z,31.92
2023-02-08T10:21:49.699Z,31.61
2023-02-08T10:23:16.701Z,30.68
2023-02-08T10:24:51.261Z,29.25
2023-02-08T10:25:59.102Z,24.05
2023-02-08T10:27:34.722Z,21.77
2023-02-08T10:28:55.886Z,23.75
2023-02-08T10:30:16.867Z,25.22
2023-02-08T10:31:30.660Z,23.11
2023-02-08T10:32:50.647Z,21.55
2023-02-08T10:33:59.155Z,21.12
2023-02-08T10:35:10.683Z,22.16
2023-02-08T10:36:31.072Z,22.03
2023-02-08T10:37:36.826Z,19.64
2023-02-08T10:38:46.829Z,16.38
2023-02-08T10:39:52.197Z,16.73
2023-02-08T10:41:03.197Z,22.44
2023-02-08T10:42:20.401Z,24.15
2023-02-08T10:43:37.707Z,23.16
2023-02-08T10:45:24.703Z,21.77
2023-02-08T10:46:32.896Z,17.21
2023-02-08T10:47:51.527Z,25.37
2023-02-08T10:49:24.758Z,30.06
2023-02-08T10:50:42.890Z,13.79
2023-02-08T10:51:47.777Z,12.71
2023-02-08T10:52:53.795Z,11.35
2023-02-08T10:53:59.731Z,11.57
2023-02-08T10:55:18.226Z,10.84
2023-02-08T10:56:37.331Z,10.56
2023-02-08T10:57:49.894Z,10.49
2023-02-08T10:59:04.862Z,9.20
2023-02-08T11:00:21.105Z,7.35
2023-02-08T11:01:26.488Z,6.55
2023-02-08T11:02:35.888Z,6.14
2023-02-08T11:03:39.689Z,6.63
2023-02-08T11:05:18.780Z,6.23
2023-02-08T11:06:27.407Z,6.19
2023-02-08T11:07:33.144Z,6.43
2023-02-08T11:08:56.290Z,7.67
2023-02-08T11:10:20.191Z,7.79
2023-02-08T11:11:27.162Z,8.42
2023-02-08T11:12:31.156Z,8.50
2023-02-08T11:13:53.075Z,8.36
2023-02-08T11:14:55.615Z,8.13
2023-02-08T11:16:02.303Z,8.53
2023-02-08T11:17:27.710Z,8.41
2023-02-08T11:18:47.246Z,9.00
2023-02-08T11:19:51.315Z,11.50
2023-02-08T11:21:05.584Z,14.73
2023-02-08T11:22:18.299Z,10.89
2023-02-08T11:23:38.328Z,11.42
2023-02-08T11:24:50.369Z,11.02
2023-02-08T11:26:18.382Z,11.22
2023-02-08T11:27:40.508Z,11.86
2023-02-08T11:29:00.262Z,11.93
2023-02-08T11:30:14.761Z,12.64
2023-02-08T11:31:21.636Z,12.04
2023-02-08T11:32:33.177Z,11.09
2023-02-08T11:33:36.870Z,11.90
2023-02-08T11:34:43.424Z,11.75
2023-02-08T11:35:59.896Z,11.35
2023-02-08T11:37:15.949Z,11.95
2023-02-08T11:38:27.425Z,12.94
2023-02-08T11:39:36.251Z,11.91
2023-02-08T11:40:46.327Z,12.21
2023-02-08T11:41:57.853Z,12.66
2023-02-08T11:43:02.071Z,13.28
2023-02-08T11:44:13.890Z,13.31
2023-02-08T11:45:39.348Z,15.02
2023-02-08T11:46:48.347Z,10.01
2023-02-08T11:47:52.380Z,10.65
2023-02-08T11:48:56.435Z,11.15
2023-02-08T11:50:02.490Z,9.61
2023-02-08T11:51:05.265Z,9.47
2023-02-08T11:52:27.572Z,10.41
2023-02-08T11:53:41.735Z,11.77
2023-02-08T11:54:43.552Z,10.59
2023-02-08T11:55:45.617Z,9.38
2023-02-08T11:57:03.446Z,8.26
2023-02-08T11:58:20.447Z,7.31
2023-02-08T11:59:24.814Z,7.93
2023-02-08T12:00:28.879Z,8.57
2023-02-08T12:01:40.169Z,7.90
2023-02-08T12:02:44.218Z,9.29
2023-02-08T12:03:50.677Z,9.37
2023-02-08T12:04:52.621Z,9.95
2023-02-08T12:06:03.818Z,9.53
2023-02-08T12:07:15.304Z,8.22
2023-02-08T12:08:44.989Z,8.40
2023-02-08T12:10:05.509Z,7.33
2023-02-08T12:11:48.247Z,8.35
2023-02-08T12:13:11.629Z,7.32
2023-02-08T12:14:38.762Z,7.94
2023-02-08T12:16:04.344Z,9.32
2023-02-08T12:17:31.685Z,9.59
2023-02-08T12:19:06.863Z,10.13
2023-02-08T12:20:32.137Z,10.53
2023-02-08T12:22:06.703Z,11.18
2023-02-08T12:23:36.607Z,10.93
2023-02-08T12:25:09.596Z,11.45
2023-02-08T12:26:37.421Z,9.71
2023-02-08T12:27:51.044Z,8.94
2023-02-08T12:29:13.892Z,8.58
2023-02-08T12:30:35.329Z,8.71
2023-02-08T12:32:01.558Z,7.72
2023-02-08T12:33:29.726Z,10.56
2023-02-08T12:34:50.451Z,10.20
2023-02-08T12:36:26.569Z,11.56
2023-02-08T12:38:24.479Z,13.14
2023-02-08T12:40:05.498Z,14.53
2023-02-08T12:41:55.950Z,18.03
2023-02-08T12:43:13.906Z,16.15
2023-02-08T12:44:50.023Z,15.25
2023-02-08T12:46:12.933Z,12.47
2023-02-08T12:47:29.447Z,12.07
2023-02-08T12:48:55.225Z,14.97
2023-02-08T12:50:26.840Z,15.87
2023-02-08T12:51:37.470Z,20.67
2023-02-08T12:52:48.190Z,25.25
2023-02-08T12:54:04.283Z,26.67
2023-02-08T12:55:31.633Z,18.58
2023-02-08T12:56:40.460Z,15.29
2023-02-08T12:57:49.688Z,16.87
2023-02-08T12:59:08.194Z,18.90
2023-02-08T13:00:40.586Z,14.46
2023-02-08T13:01:51.218Z,13.92
2023-02-08T13:03:02.440Z,16.57
2023-02-08T13:04:33.092Z,16.78
2023-02-08T13:05:42.926Z,14.16
2023-02-08T13:07:00.969Z,13.20
2023-02-08T13:08:20.634Z,14.16
2023-02-08T13:09:39.363Z,15.88
2023-02-08T13:10:47.062Z,19.49
2023-02-08T13:11:54.259Z,17.89
2023-02-08T13:13:12.035Z,17.79
2023-02-08T13:14:36.355Z,15.53
2023-02-08T13:16:05.657Z,15.41
2023-02-08T13:17:41.949Z,15.61
2023-02-08T13:18:52.894Z,15.16
2023-02-08T13:20:03.217Z,15.69
2023-02-08T13:21:13.226Z,18.35
2023-02-08T13:22:17.735Z,15.91
2023-02-08T13:23:50.836Z,16.59
2023-02-08T13:25:07.143Z,16.34
2023-02-08T13:26:24.268Z,16.10
2023-02-08T13:27:26.475Z,14.92
2023-02-08T13:28:29.690Z,16.60
2023-02-08T13:29:33.736Z,15.83
2023-02-08T13:30:40.322Z,13.42
2023-02-08T13:31:49.697Z,13.19
2023-02-08T13:32:54.137Z,12.10
2023-02-08T13:34:02.349Z,11.55
2023-02-08T13:35:29.036Z,10.61
2023-02-08T13:36:35.807Z,10.56
2023-02-08T13:37:38.557Z,9.90
2023-02-08T13:38:48.278Z,10.14
2023-02-08T13:40:04.021Z,9.30
2023-02-08T13:41:16.202Z,9.26
2023-02-08T13:42:27.196Z,9.85
2023-02-08T13:43:40.196Z,9.79
2023-02-08T13:44:42.876Z,10.34
2023-02-08T13:45:54.269Z,10.40
2023-02-08T13:46:58.369Z,10.39
2023-02-08T13:48:13.091Z,10.41
2023-02-08T13:49:52.630Z,10.74
2023-02-08T13:50:56.919Z,10.68
2023-02-08T13:51:59.127Z,10.44
2023-02-08T13:53:03.015Z,9.29
2023-02-08T13:54:12.572Z,10.26
2023-02-08T13:55:33.438Z,18.64
2023-02-08T13:56:42.426Z,15.49
2023-02-08T13:57:56.217Z,15.44
2023-02-08T13:59:01.308Z,13.52
2023-02-08T14:00:25.228Z,11.31
2023-02-08T14:01:33.930Z,10.85
2023-02-08T14:02:35.988Z,12.35
2023-02-08T14:03:38.166Z,12.88
2023-02-08T14:04:43.913Z,13.75
2023-02-08T14:05:59.562Z,9.93
2023-02-08T14:07:11.787Z,10.50
2023-02-08T14:08:39.414Z,8.57
2023-02-08T14:09:49.558Z,9.16
2023-02-08T14:11:17.899Z,9.54
2023-02-08T14:12:38.870Z,8.82
2023-02-08T14:13:54.551Z,8.86
2023-02-08T14:15:24.692Z,9.12
2023-02-08T14:16:36.042Z,9.00
2023-02-08T14:17:44.237Z,9.21
2023-02-08T14:18:54.821Z,9.46
2023-02-08T14:20:05.254Z,9.98
2023-02-08T14:21:07.820Z,10.21
2023-02-08T14:22:18.679Z,10.40
2023-02-08T14:23:24.615Z,11.02
2023-02-08T14:24:26.760Z,10.81
2023-02-08T14:25:49.630Z,10.35
2023-02-08T14:27:07.131Z,10.11
2023-02-08T14:28:34.560Z,10.62
2023-02-08T14:29:37.821Z,10.49
2023-02-08T14:30:39.969Z,10.71
2023-02-08T14:31:45.371Z,11.27
2023-02-08T14:33:12.221Z,11.19
2023-02-08T14:34:38.001Z,10.43
2023-02-08T14:35:50.606Z,11.57
2023-02-08T14:37:26.850Z,11.36
2023-02-08T14:38:52.552Z,11.17
2023-02-08T14:40:24.923Z,11.90
2023-02-08T14:41:54.568Z,10.28
2023-02-08T14:43:23.201Z,11.63
2023-02-08T14:44:48.152Z,12.28
2023-02-08T14:45:53.040Z,11.91
2023-02-08T14:46:54.890Z,13.04
2023-02-08T14:48:24.771Z,14.34